Time;durP1;ratioP1;P1;durP2;ratioP2;P2;SDS_P1;SDS_P2;PMS_P1;PMS_P2;Temp;Humidity;BMP_temperature;BMP_pressure;BME280_temperature;BME280_humidity;BME280_pressure;Samples;Min_cycle;Max_cycle;Signal;HPM_P1;HPM_P2
2022/03/10 00:00:11;;;;;;;;;7.25;6.00;;;;;;;;5095377;27;45478;-75
2022/03/10 00:02:37;;;;;;;;;6.00;6.00;;;;;;;;5095597;27;46225;-75
2022/03/10 00:05:03;;;;;;;;;7.00;7.00;;;;;;;;5095749;27;45389;-75
2022/03/10 00:07:28;;;;;;;;;7.00;6.75;;;;;;;;5095784;27;45827;-75
2022/03/10 00:09:53;;;;;;;;;8.50;8.00;;;;;;;;5095580;27;45394;-75
2022/03/10 00:12:19;;;;;;;;;8.00;6.50;;;;;;;;5095409;27;45465;-75
2022/03/10 00:14:44;;;;;;;;;7.00;7.00;;;;;;;;5095906;27;45356;-75
2022/03/10 00:17:09;;;;;;;;;6.00;6.00;;;;;;;;5095620;27;45426;-75
2022/03/10 00:19:34;;;;;;;;;8.25;8.25;;;;;;;;5094928;27;45325;-75
2022/03/10 00:22:00;;;;;;;;;8.00;6.50;;;;;;;;5094752;27;47443;-75
2022/03/10 00:24:25;;;;;;;;;6.00;6.00;;;;;;;;5094667;27;45725;-75
2022/03/10 00:26:50;;;;;;;;;6.75;6.25;;;;;;;;5096444;27;45420;-75
2022/03/10 00:29:15;;;;;;;;;10.00;7.50;;;;;;;;5093965;27;45484;-75
2022/03/10 00:31:41;;;;;;;;;10.50;8.75;;;;;;;;5094299;27;47068;-75
2022/03/10 00:34:06;;;;;;;;;8.00;7.00;;;;;;;;5094676;27;45503;-75
2022/03/10 00:36:31;;;;;;;;;7.50;7.50;;;;;;;;5095275;27;45820;-75
2022/03/10 00:38:56;;;;;;;;;7.00;6.00;;;;;;;;5079852;27;45571;-75
2022/03/10 00:41:22;;;;;;;;;7.00;7.00;;;;;;;;5093455;27;45976;-75
2022/03/10 00:43:47;;;;;;;;;7.75;7.75;;;;;;;;5094335;27;45543;-75
2022/03/10 00:46:12;;;;;;;;;7.00;7.00;;;;;;;;5093582;27;45369;-75
2022/03/10 00:48:37;;;;;;;;;8.25;6.75;;;;;;;;5093526;27;45341;-75
2022/03/10 00:51:03;;;;;;;;;7.25;7.25;;;;;;;;5095131;27;46012;-75
2022/03/10 00:53:29;;;;;;;;;8.75;7.00;;;;;;;;5094721;27;45456;-75
2022/03/10 00:55:54;;;;;;;;;7.75;6.00;;;;;;;;5094230;27;45483;-75
2022/03/10 00:58:19;;;;;;;;;7.00;6.00;;;;;;;;5095505;27;45445;-75
2022/03/10 01:00:44;;;;;;;;;7.00;6.25;;;;;;;;5097811;27;46328;-75
2022/03/10 01:03:10;;;;;;;;;8.00;6.75;;;;;;;;5097924;27;45244;-75
2022/03/10 01:05:35;;;;;;;;;9.00;8.50;;;;;;;;5099272;27;45264;-75
2022/03/10 01:08:00;;;;;;;;;6.75;6.75;;;;;;;;5098102;27;45938;-75
2022/03/10 01:10:25;;;;;;;;;7.75;7.75;;;;;;;;5094665;27;46127;-75
2022/03/10 01:12:51;;;;;;;;;10.75;6.50;;;;;;;;5083946;27;45410;-75
2022/03/10 01:15:23;;;;;;;;;7.50;7.50;;;;;;;;5098023;27;45452;-75
2022/03/10 01:17:49;;;;;;;;;9.00;7.75;;;;;;;;5098670;27;45267;-75
2022/03/10 01:20:14;;;;;;;;;7.50;7.50;;;;;;;;5097274;27;45383;-75
2022/03/10 01:22:40;;;;;;;;;11.00;10.75;;;;;;;;5091195;27;45275;-75
2022/03/10 01:25:06;;;;;;;;;7.75;7.75;;;;;;;;5086064;27;45388;-75
2022/03/10 01:27:31;;;;;;;;;8.25;6.75;;;;;;;;5092546;27;45366;-75
2022/03/10 01:29:57;;;;;;;;;11.75;10.00;;;;;;;;5094299;27;46317;-75
2022/03/10 01:32:23;;;;;;;;;7.25;7.00;;;;;;;;5097416;27;45423;-75
2022/03/10 01:34:48;;;;;;;;;10.25;9.25;;;;;;;;5097798;27;45309;-75
2022/03/10 01:37:13;;;;;;;;;8.00;8.00;;;;;;;;5097730;27;45432;-75
2022/03/10 01:39:39;;;;;;;;;10.25;9.25;;;;;;;;5079316;27;48184;-75
2022/03/10 01:42:06;;;;;;;;;9.25;9.25;;;;;;;;5097437;27;45317;-75
2022/03/10 01:44:32;;;;;;;;;8.00;7.00;;;;;;;;5085681;27;45299;-75
2022/03/10 01:46:57;;;;;;;;;8.25;8.25;;;;;;;;5085739;27;45782;-75
2022/03/10 01:49:22;;;;;;;;;6.75;6.75;;;;;;;;5088458;27;45990;-75
2022/03/10 01:51:47;;;;;;;;;8.00;8.00;;;;;;;;5097156;27;45435;-75
2022/03/10 01:54:12;;;;;;;;;7.00;7.00;;;;;;;;5097599;27;45354;-75
2022/03/10 01:56:38;;;;;;;;;11.00;8.25;;;;;;;;5097473;27;45341;-75
2022/03/10 01:59:03;;;;;;;;;7.75;6.75;;;;;;;;5096524;27;46108;-75
2022/03/10 02:01:28;;;;;;;;;11.50;8.00;;;;;;;;5096511;27;45365;-75
2022/03/10 02:03:56;;;;;;;;;8.50;7.25;;;;;;;;5096849;27;45380;-75
2022/03/10 02:06:21;;;;;;;;;8.00;7.75;;;;;;;;5097137;27;45476;-75
2022/03/10 02:11:30;;;;;;;;;10.75;7.50;;;;;;;;5097279;27;45284;-75
2022/03/10 02:13:56;;;;;;;;;8.50;7.00;;;;;;;;5096231;27;45453;-75
2022/03/10 02:19:05;;;;;;;;;8.25;8.00;;;;;;;;5096356;27;45437;-75
2022/03/10 02:21:30;;;;;;;;;8.75;7.75;;;;;;;;5096920;27;45353;-75
2022/03/10 02:23:55;;;;;;;;;7.75;5.25;;;;;;;;5098169;27;45613;-75
2022/03/10 02:26:21;;;;;;;;;8.25;7.00;;;;;;;;5096244;27;45385;-75
2022/03/10 02:28:48;;;;;;;;;7.75;7.75;;;;;;;;5096566;27;49401;-75
2022/03/10 02:31:13;;;;;;;;;7.50;7.00;;;;;;;;5096300;27;45353;-75
2022/03/10 02:33:38;;;;;;;;;10.00;6.25;;;;;;;;5096994;27;45575;-75
2022/03/10 02:36:07;;;;;;;;;8.00;7.50;;;;;;;;5080565;27;45550;-75
2022/03/10 02:38:33;;;;;;;;;8.75;8.75;;;;;;;;5096293;27;46273;-75
2022/03/10 02:40:58;;;;;;;;;8.00;8.00;;;;;;;;5077579;27;45493;-75
2022/03/10 02:43:24;;;;;;;;;8.00;8.00;;;;;;;;5095891;27;45349;-75
2022/03/10 02:45:50;;;;;;;;;9.00;9.00;;;;;;;;5096625;27;45259;-75
2022/03/10 02:48:15;;;;;;;;;11.25;8.75;;;;;;;;5095952;27;47512;-75
2022/03/10 02:50:41;;;;;;;;;7.50;6.75;;;;;;;;5095174;27;45307;-75
2022/03/10 02:53:06;;;;;;;;;8.00;8.00;;;;;;;;5096553;27;45423;-75
2022/03/10 02:55:32;;;;;;;;;11.00;8.25;;;;;;;;5096219;27;45495;-75
2022/03/10 02:57:57;;;;;;;;;9.75;8.25;;;;;;;;5096707;27;45722;-75
2022/03/10 03:00:22;;;;;;;;;8.00;7.50;;;;;;;;5077841;27;45446;-75
2022/03/10 03:02:47;;;;;;;;;8.75;8.75;;;;;;;;5097120;27;45401;-75
2022/03/10 03:05:13;;;;;;;;;8.75;8.75;;;;;;;;5096463;27;45452;-75
2022/03/10 03:07:38;;;;;;;;;10.75;9.75;;;;;;;;5091064;27;45993;-75
2022/03/10 03:10:04;;;;;;;;;10.75;10.50;;;;;;;;5095880;27;45393;-75
2022/03/10 03:12:29;;;;;;;;;9.00;9.00;;;;;;;;5095931;27;45367;-75
2022/03/10 03:14:55;;;;;;;;;9.75;8.50;;;;;;;;5096987;27;45310;-75
2022/03/10 03:17:20;;;;;;;;;11.00;11.00;;;;;;;;5095937;27;45408;-75
2022/03/10 03:19:45;;;;;;;;;9.75;9.50;;;;;;;;5095304;27;45500;-75
2022/03/10 03:22:11;;;;;;;;;10.00;9.00;;;;;;;;5094731;27;45422;-75
2022/03/10 03:24:36;;;;;;;;;10.50;10.25;;;;;;;;5095804;27;45284;-76
2022/03/10 03:27:01;;;;;;;;;10.25;9.50;;;;;;;;5096703;27;47035;-75
2022/03/10 03:29:27;;;;;;;;;9.50;8.75;;;;;;;;5077663;27;45340;-75
2022/03/10 03:31:52;;;;;;;;;9.50;8.50;;;;;;;;5095797;27;45413;-75
2022/03/10 03:34:17;;;;;;;;;9.50;9.00;;;;;;;;5095509;27;45304;-75
2022/03/10 03:36:44;;;;;;;;;8.75;8.75;;;;;;;;5095282;27;45370;-75
2022/03/10 03:39:10;;;;;;;;;7.50;7.00;;;;;;;;5095922;27;45292;-75
2022/03/10 03:41:35;;;;;;;;;10.00;7.75;;;;;;;;5096506;27;45504;-75
2022/03/10 03:44:00;;;;;;;;;10.75;8.00;;;;;;;;5087553;27;45312;-75
2022/03/10 03:46:26;;;;;;;;;10.75;10.25;;;;;;;;5087080;27;46228;-75
2022/03/10 03:48:51;;;;;;;;;8.75;7.00;;;;;;;;5095994;27;45417;-75
2022/03/10 03:51:16;;;;;;;;;8.50;8.25;;;;;;;;5095161;27;45509;-75
2022/03/10 03:53:42;;;;;;;;;8.75;8.25;;;;;;;;5096173;27;45487;-75
2022/03/10 03:56:08;;;;;;;;;10.75;7.50;;;;;;;;5095074;27;45520;-75
2022/03/10 03:58:33;;;;;;;;;10.75;10.75;;;;;;;;5095461;27;45416;-75
2022/03/10 04:00:58;;;;;;;;;9.50;9.50;;;;;;;;5095634;27;45535;-75
2022/03/10 04:03:24;;;;;;;;;8.00;8.00;;;;;;;;5095097;27;45702;-75
2022/03/10 04:05:49;;;;;;;;;8.00;6.00;;;;;;;;5096198;27;46139;-75
2022/03/10 04:08:14;;;;;;;;;11.25;11.25;;;;;;;;5094636;27;45606;-75
2022/03/10 04:10:39;;;;;;;;;9.00;9.00;;;;;;;;5095318;27;45302;-75
2022/03/10 04:13:05;;;;;;;;;10.25;9.00;;;;;;;;5095302;27;45560;-75
2022/03/10 04:15:31;;;;;;;;;11.00;10.00;;;;;;;;5095222;27;47098;-75
2022/03/10 04:17:56;;;;;;;;;9.25;7.75;;;;;;;;5095963;27;45341;-75
2022/03/10 04:20:21;;;;;;;;;8.00;8.00;;;;;;;;5095170;27;45618;-75
2022/03/10 04:22:47;;;;;;;;;10.25;10.00;;;;;;;;5094678;27;45318;-75
2022/03/10 04:25:12;;;;;;;;;8.50;8.50;;;;;;;;5095184;27;45539;-75
2022/03/10 04:27:37;;;;;;;;;12.75;11.00;;;;;;;;5094714;27;45196;-75
2022/03/10 04:30:03;;;;;;;;;8.00;8.00;;;;;;;;5095399;27;45376;-75
2022/03/10 04:32:28;;;;;;;;;8.75;8.50;;;;;;;;5096517;27;45325;-75
2022/03/10 04:34:54;;;;;;;;;11.50;8.50;;;;;;;;5098658;27;45314;-75
2022/03/10 04:37:19;;;;;;;;;9.75;8.25;;;;;;;;5097991;27;45231;-75
2022/03/10 04:39:44;;;;;;;;;13.75;9.75;;;;;;;;5098489;27;45549;-75
2022/03/10 04:42:10;;;;;;;;;10.25;9.00;;;;;;;;5098545;27;45544;-75
2022/03/10 04:44:35;;;;;;;;;10.00;10.00;;;;;;;;5098777;27;45965;-75
2022/03/10 04:47:00;;;;;;;;;11.00;10.25;;;;;;;;5089939;27;45342;-75
2022/03/10 04:49:26;;;;;;;;;12.50;11.00;;;;;;;;5089741;27;45334;-75
2022/03/10 04:51:51;;;;;;;;;9.25;9.25;;;;;;;;5098314;27;45403;-75
2022/03/10 04:54:16;;;;;;;;;10.00;10.00;;;;;;;;5098359;27;45909;-75
2022/03/10 04:56:42;;;;;;;;;10.50;9.25;;;;;;;;5099333;27;45333;-75
2022/03/10 04:59:07;;;;;;;;;11.00;11.00;;;;;;;;5098227;27;45397;-75
2022/03/10 05:01:32;;;;;;;;;12.00;10.00;;;;;;;;5097931;27;45401;-75
2022/03/10 05:03:57;;;;;;;;;10.00;8.00;;;;;;;;5097996;27;47296;-75
2022/03/10 05:06:23;;;;;;;;;11.50;11.00;;;;;;;;5097961;27;45536;-75
2022/03/10 05:08:48;;;;;;;;;9.75;9.50;;;;;;;;5099393;27;45804;-75
2022/03/10 05:11:13;;;;;;;;;10.25;10.25;;;;;;;;5097720;27;45240;-75
2022/03/10 05:13:39;;;;;;;;;11.00;10.00;;;;;;;;5097484;27;46036;-75
2022/03/10 05:16:04;;;;;;;;;11.75;11.50;;;;;;;;5097852;27;45397;-75
2022/03/10 05:18:29;;;;;;;;;9.50;9.50;;;;;;;;5096117;27;45345;-75
2022/03/10 05:20:54;;;;;;;;;10.25;10.00;;;;;;;;5094145;27;45412;-75
2022/03/10 05:23:20;;;;;;;;;9.00;9.00;;;;;;;;5097642;27;45290;-75
2022/03/10 05:25:45;;;;;;;;;10.50;9.50;;;;;;;;5091569;27;45549;-75
2022/03/10 05:28:14;;;;;;;;;11.50;10.00;;;;;;;;5087499;27;45446;-75
2022/03/10 05:30:42;;;;;;;;;10.00;8.50;;;;;;;;5097779;27;45414;-75
2022/03/10 05:33:08;;;;;;;;;8.00;8.00;;;;;;;;5097687;27;45726;-75
2022/03/10 05:35:34;;;;;;;;;11.00;10.00;;;;;;;;5097222;27;45405;-75
2022/03/10 05:37:59;;;;;;;;;13.00;9.00;;;;;;;;5097001;27;45548;-75
2022/03/10 05:40:24;;;;;;;;;9.00;9.00;;;;;;;;5097002;27;45366;-75
2022/03/10 05:42:52;;;;;;;;;7.50;7.50;;;;;;;;5097568;27;45572;-75
2022/03/10 05:45:20;;;;;;;;;12.00;11.25;;;;;;;;5096610;27;45337;-75
2022/03/10 05:47:49;;;;;;;;;9.75;8.75;;;;;;;;5098094;27;45428;-75
2022/03/10 05:50:14;;;;;;;;;9.25;9.25;;;;;;;;5097315;27;45355;-75
2022/03/10 05:52:40;;;;;;;;;11.50;9.75;;;;;;;;5096958;27;45429;-75
2022/03/10 05:55:05;;;;;;;;;9.00;9.00;;;;;;;;5097417;27;45362;-75
2022/03/10 05:57:31;;;;;;;;;12.75;12.00;;;;;;;;5096853;27;45329;-75
2022/03/10 05:59:56;;;;;;;;;11.25;9.75;;;;;;;;5099508;27;45418;-75
2022/03/10 06:02:21;;;;;;;;;9.50;9.00;;;;;;;;5096461;27;48540;-75
2022/03/10 06:04:46;;;;;;;;;11.00;9.25;;;;;;;;5097405;27;45337;-75
2022/03/10 06:07:11;;;;;;;;;10.00;8.50;;;;;;;;5097529;27;45506;-75
2022/03/10 06:09:37;;;;;;;;;10.75;10.75;;;;;;;;5097153;27;45657;-75
2022/03/10 06:12:02;;;;;;;;;11.25;10.00;;;;;;;;5098094;27;46257;-76
2022/03/10 06:14:27;;;;;;;;;10.75;9.50;;;;;;;;5097085;27;45471;-76
2022/03/10 06:16:53;;;;;;;;;10.00;10.00;;;;;;;;5096363;27;45458;-75
2022/03/10 06:19:18;;;;;;;;;11.75;10.50;;;;;;;;5096830;27;45478;-75
2022/03/10 06:21:43;;;;;;;;;10.00;10.00;;;;;;;;5096735;27;46195;-75
2022/03/10 06:24:09;;;;;;;;;12.25;10.50;;;;;;;;5097307;27;45287;-75
2022/03/10 06:26:36;;;;;;;;;9.50;9.25;;;;;;;;5097316;27;45462;-75
2022/03/10 06:29:02;;;;;;;;;12.50;10.75;;;;;;;;5096667;27;45481;-75
2022/03/10 06:31:27;;;;;;;;;11.75;9.00;;;;;;;;5096571;27;46112;-74
2022/03/10 06:33:52;;;;;;;;;10.75;10.75;;;;;;;;5096919;27;47789;-75
2022/03/10 06:36:17;;;;;;;;;11.50;11.00;;;;;;;;5080765;27;45325;-75
2022/03/10 06:38:43;;;;;;;;;8.25;8.00;;;;;;;;5097819;27;45403;-75
2022/03/10 06:41:08;;;;;;;;;10.25;10.00;;;;;;;;5096346;27;45488;-75
2022/03/10 06:43:33;;;;;;;;;10.75;10.75;;;;;;;;5096352;27;45543;-75
2022/03/10 06:45:58;;;;;;;;;11.00;10.25;;;;;;;;5096511;27;45375;-75
2022/03/10 06:48:23;;;;;;;;;8.00;6.50;;;;;;;;5096517;27;45484;-74
2022/03/10 06:50:49;;;;;;;;;11.00;11.00;;;;;;;;5097467;27;45977;-75
2022/03/10 06:53:14;;;;;;;;;11.25;9.75;;;;;;;;5096429;27;45313;-76
2022/03/10 06:55:39;;;;;;;;;11.00;9.50;;;;;;;;5095208;27;45355;-72
2022/03/10 06:58:05;;;;;;;;;13.00;11.00;;;;;;;;5096108;27;45852;-75
2022/03/10 07:00:30;;;;;;;;;10.75;10.25;;;;;;;;5082454;27;46193;-77
2022/03/10 07:02:56;;;;;;;;;10.75;10.75;;;;;;;;5097301;27;45492;-73
2022/03/10 07:05:21;;;;;;;;;9.75;8.75;;;;;;;;5096450;27;45593;-77
2022/03/10 07:07:46;;;;;;;;;11.00;10.50;;;;;;;;5096472;27;45547;-78
2022/03/10 07:10:12;;;;;;;;;9.00;8.00;;;;;;;;5095933;27;46272;-78
2022/03/10 07:12:39;;;;;;;;;9.75;9.75;;;;;;;;5096081;27;45373;-76
2022/03/10 07:15:05;;;;;;;;;10.50;9.00;;;;;;;;5096101;27;45268;-78
2022/03/10 07:17:30;;;;;;;;;10.00;9.00;;;;;;;;5095166;27;45493;-78
2022/03/10 07:19:55;;;;;;;;;11.75;9.00;;;;;;;;5101048;27;46236;-79
2022/03/10 07:22:21;;;;;;;;;11.75;10.00;;;;;;;;5078051;27;45990;-79
2022/03/10 07:24:46;;;;;;;;;9.25;8.00;;;;;;;;5099950;27;45498;-80
2022/03/10 07:27:12;;;;;;;;;10.50;10.50;;;;;;;;5099400;27;45361;-80
2022/03/10 07:29:37;;;;;;;;;9.50;8.25;;;;;;;;5095292;27;45405;-77
2022/03/10 07:32:02;;;;;;;;;11.25;9.50;;;;;;;;5095567;27;45383;-77
2022/03/10 07:34:27;;;;;;;;;8.50;8.50;;;;;;;;5095561;27;45533;-77
2022/03/10 07:36:53;;;;;;;;;1.00;0.00;;;;;;;;5096280;27;45674;-73
2022/03/10 07:39:18;;;;;;;;;10.00;10.00;;;;;;;;5095595;27;46910;-73
2022/03/10 07:41:44;;;;;;;;;9.00;9.00;;;;;;;;5096940;27;45465;-73
2022/03/10 07:44:09;;;;;;;;;11.25;9.50;;;;;;;;5069062;27;45414;-73
2022/03/10 07:46:34;;;;;;;;;10.00;10.00;;;;;;;;5095170;27;45481;-72
2022/03/10 07:48:59;;;;;;;;;11.00;10.00;;;;;;;;5095955;27;46358;-72
2022/03/10 07:51:25;;;;;;;;;9.50;9.50;;;;;;;;5095281;27;45373;-73
2022/03/10 07:53:50;;;;;;;;;10.00;9.25;;;;;;;;5096249;27;45333;-73
2022/03/10 07:56:15;;;;;;;;;11.75;9.75;;;;;;;;5084961;27;45451;-73
2022/03/10 07:58:41;;;;;;;;;12.00;10.00;;;;;;;;5088229;27;47113;-73
2022/03/10 08:01:06;;;;;;;;;9.00;9.00;;;;;;;;5095309;27;45556;-73
2022/03/10 08:03:31;;;;;;;;;9.75;9.25;;;;;;;;5096237;27;45412;-73
2022/03/10 08:05:56;;;;;;;;;9.75;9.75;;;;;;;;5080384;27;45431;-73
2022/03/10 08:08:22;;;;;;;;;9.50;8.25;;;;;;;;5097067;27;46275;-73
2022/03/10 08:10:47;;;;;;;;;9.00;9.00;;;;;;;;5098674;27;48669;-73
2022/03/10 08:13:12;;;;;;;;;11.25;9.25;;;;;;;;5098539;27;45386;-73
2022/03/10 08:15:38;;;;;;;;;7.00;6.75;;;;;;;;5098781;27;45325;-73
2022/03/10 08:18:03;;;;;;;;;11.25;9.50;;;;;;;;5099240;27;45490;-73
2022/03/10 08:20:29;;;;;;;;;11.25;11.25;;;;;;;;5097585;27;45463;-73
2022/03/10 08:22:55;;;;;;;;;10.25;8.50;;;;;;;;5098460;27;45428;-73
2022/03/10 08:25:20;;;;;;;;;12.50;9.50;;;;;;;;5098226;27;45464;-73
2022/03/10 08:27:47;;;;;;;;;10.00;10.00;;;;;;;;5096407;27;46150;-73
2022/03/10 08:30:13;;;;;;;;;8.25;8.25;;;;;;;;5096326;27;45450;-73
2022/03/10 08:32:39;;;;;;;;;9.25;9.00;;;;;;;;5099319;27;45382;-73
2022/03/10 08:35:04;;;;;;;;;9.00;7.75;;;;;;;;5098853;27;45405;-73
2022/03/10 08:37:30;;;;;;;;;9.75;8.00;;;;;;;;5098962;27;47057;-73
2022/03/10 08:39:55;;;;;;;;;10.25;10.00;;;;;;;;5101151;27;45521;-73
2022/03/10 08:42:20;;;;;;;;;9.75;8.75;;;;;;;;5098111;27;45848;-73
2022/03/10 08:44:46;;;;;;;;;10.25;9.75;;;;;;;;5099119;27;45470;-72
2022/03/10 08:47:11;;;;;;;;;10.50;10.50;;;;;;;;5098667;27;46308;-73
2022/03/10 08:49:36;;;;;;;;;11.00;8.50;;;;;;;;5098323;27;45355;-73
2022/03/10 08:52:01;;;;;;;;;9.00;9.00;;;;;;;;5098746;27;45507;-73
2022/03/10 08:54:27;;;;;;;;;9.75;8.00;;;;;;;;5098470;27;45320;-72
2022/03/10 08:56:52;;;;;;;;;7.25;7.25;;;;;;;;5098584;27;46016;-73
2022/03/10 08:59:17;;;;;;;;;13.25;10.00;;;;;;;;5098167;27;45517;-73
2022/03/10 09:01:42;;;;;;;;;8.25;8.00;;;;;;;;5097876;27;45351;-73
2022/03/10 09:04:07;;;;;;;;;10.50;10.00;;;;;;;;5097965;27;45475;-73
2022/03/10 09:06:33;;;;;;;;;9.00;9.00;;;;;;;;5097927;27;46352;-73
2022/03/10 09:08:59;;;;;;;;;9.50;9.00;;;;;;;;5098751;27;45318;-72
2022/03/10 09:11:24;;;;;;;;;10.25;9.25;;;;;;;;5097876;27;45283;-73
2022/03/10 09:13:49;;;;;;;;;10.50;9.25;;;;;;;;5098121;27;45423;-73
2022/03/10 09:16:15;;;;;;;;;8.00;8.00;;;;;;;;5097591;27;47390;-73
2022/03/10 09:18:41;;;;;;;;;10.50;9.75;;;;;;;;5097333;27;45313;-73
2022/03/10 09:21:07;;;;;;;;;6.50;6.50;;;;;;;;5098309;27;45248;-73
2022/03/10 09:23:32;;;;;;;;;10.75;9.00;;;;;;;;5098599;27;45315;-72
2022/03/10 09:25:57;;;;;;;;;10.25;9.25;;;;;;;;5099194;27;45433;-73
2022/03/10 09:28:22;;;;;;;;;10.00;9.00;;;;;;;;5097308;27;45352;-73
2022/03/10 09:30:47;;;;;;;;;9.75;7.00;;;;;;;;5098004;27;45440;-73
2022/03/10 09:33:13;;;;;;;;;13.00;10.75;;;;;;;;5097768;27;45347;-73
2022/03/10 09:35:38;;;;;;;;;10.75;10.00;;;;;;;;5098399;27;45369;-73
2022/03/10 09:38:03;;;;;;;;;12.00;9.00;;;;;;;;5097502;27;45430;-73
2022/03/10 09:40:29;;;;;;;;;12.25;9.50;;;;;;;;5096460;27;45314;-73
2022/03/10 09:42:55;;;;;;;;;10.25;8.75;;;;;;;;5097424;27;45455;-72
2022/03/10 09:45:20;;;;;;;;;9.50;9.25;;;;;;;;5096916;27;46131;-73
2022/03/10 09:47:47;;;;;;;;;9.75;9.75;;;;;;;;5098294;27;45358;-73
2022/03/10 09:50:14;;;;;;;;;8.00;8.00;;;;;;;;5097052;27;45429;-73
2022/03/10 09:52:40;;;;;;;;;8.25;7.50;;;;;;;;5096676;27;45514;-73
2022/03/10 09:55:06;;;;;;;;;12.00;12.00;;;;;;;;5096822;27;46253;-71
2022/03/10 09:57:33;;;;;;;;;7.75;7.75;;;;;;;;5091218;27;45638;-73
2022/03/10 09:59:59;;;;;;;;;8.50;8.50;;;;;;;;5097803;27;45511;-73
2022/03/10 10:02:24;;;;;;;;;9.00;8.50;;;;;;;;5096664;27;45314;-73
2022/03/10 10:04:51;;;;;;;;;7.50;7.25;;;;;;;;5097692;27;45326;-73
2022/03/10 10:07:18;;;;;;;;;7.25;7.25;;;;;;;;5096603;27;45608;-73
2022/03/10 10:09:48;;;;;;;;;10.00;8.75;;;;;;;;5082304;27;45322;-73
2022/03/10 10:12:15;;;;;;;;;11.50;7.75;;;;;;;;5097499;27;45350;-73
2022/03/10 10:14:46;;;;;;;;;7.00;7.00;;;;;;;;5097275;27;45309;-73
2022/03/10 10:17:12;;;;;;;;;10.00;8.75;;;;;;;;5096720;27;45397;-73
2022/03/10 10:19:38;;;;;;;;;11.25;8.25;;;;;;;;5096436;27;45434;-73
2022/03/10 10:22:16;;;;;;;;;8.00;8.00;;;;;;;;5096896;27;45491;-73
2022/03/10 10:24:49;;;;;;;;;10.00;8.50;;;;;;;;5080966;27;46422;-73
2022/03/10 10:27:16;;;;;;;;;9.00;8.25;;;;;;;;5096532;27;45610;-73
2022/03/10 10:29:45;;;;;;;;;10.25;8.25;;;;;;;;5097186;27;45550;-73
2022/03/10 10:32:10;;;;;;;;;10.00;10.00;;;;;;;;5095954;27;45523;-73
2022/03/10 10:34:35;;;;;;;;;11.50;10.00;;;;;;;;5096413;27;46632;-73
2022/03/10 10:37:00;;;;;;;;;9.00;9.00;;;;;;;;5096705;27;45479;-73
2022/03/10 10:39:25;;;;;;;;;7.75;7.75;;;;;;;;5096391;27;45353;-73
2022/03/10 10:41:51;;;;;;;;;8.00;8.00;;;;;;;;5097158;27;45323;-72
2022/03/10 10:44:17;;;;;;;;;8.50;7.75;;;;;;;;5091278;27;45402;-73
2022/03/10 10:46:46;;;;;;;;;8.50;8.50;;;;;;;;5096657;27;45448;-73
2022/03/10 10:49:14;;;;;;;;;8.50;8.25;;;;;;;;5095992;27;45480;-73
2022/03/10 10:51:41;;;;;;;;;7.00;7.00;;;;;;;;5095826;27;45272;-73
2022/03/10 10:54:08;;;;;;;;;10.75;9.75;;;;;;;;5096509;27;46335;-73
2022/03/10 10:56:34;;;;;;;;;7.50;7.00;;;;;;;;5096321;27;45503;-73
2022/03/10 10:59:02;;;;;;;;;9.00;7.75;;;;;;;;5095793;27;45413;-73
2022/03/10 11:01:30;;;;;;;;;8.00;7.00;;;;;;;;5096406;27;45610;-73
2022/03/10 11:03:55;;;;;;;;;8.25;7.00;;;;;;;;5096683;27;47096;-73
2022/03/10 11:06:21;;;;;;;;;10.00;10.00;;;;;;;;5095631;27;45281;-73
2022/03/10 11:08:47;;;;;;;;;10.00;9.00;;;;;;;;5096656;27;45343;-73
2022/03/10 11:11:12;;;;;;;;;7.75;7.75;;;;;;;;5096307;27;45435;-73
2022/03/10 11:13:38;;;;;;;;;7.50;7.25;;;;;;;;5095354;27;46025;-73
2022/03/10 11:16:07;;;;;;;;;9.75;8.75;;;;;;;;5095970;27;45405;-73
2022/03/10 11:18:32;;;;;;;;;10.00;8.00;;;;;;;;5086490;27;45385;-73
2022/03/10 11:21:23;;;;;;;;;10.50;9.00;;;;;;;;5096552;27;45708;-73
2022/03/10 11:24:07;;;;;;;;;8.75;8.25;;;;;;;;4974178;28;46485;-73
2022/03/10 11:26:37;;;;;;;;;8.75;8.75;;;;;;;;4972172;28;45446;-73
2022/03/10 11:29:02;;;;;;;;;8.75;8.75;;;;;;;;4972930;28;45438;-73
2022/03/10 11:31:29;;;;;;;;;8.00;8.00;;;;;;;;4970422;28;45594;-73
2022/03/10 11:33:54;;;;;;;;;8.00;6.50;;;;;;;;4960767;28;47095;-73
2022/03/10 11:36:19;;;;;;;;;7.25;7.25;;;;;;;;4957205;28;45383;-73
2022/03/10 11:38:58;;;;;;;;;6.75;6.75;;;;;;;;4974450;28;45637;-73
2022/03/10 11:41:43;;;;;;;;;9.00;6.00;;;;;;;;4972371;28;50778;-73
2022/03/10 11:44:09;;;;;;;;;7.50;7.50;;;;;;;;4966497;28;46296;-73
2022/03/10 11:46:36;;;;;;;;;7.00;7.00;;;;;;;;4964657;28;45499;-73
2022/03/10 11:49:01;;;;;;;;;7.00;7.00;;;;;;;;4973038;28;45583;-73
2022/03/10 11:51:41;;;;;;;;;8.00;7.50;;;;;;;;4971366;28;45514;-73
2022/03/10 11:54:07;;;;;;;;;9.25;7.75;;;;;;;;4955280;28;47266;-73
2022/03/10 11:56:33;;;;;;;;;6.50;6.50;;;;;;;;4973026;28;45485;-73
2022/03/10 11:59:15;;;;;;;;;6.75;6.75;;;;;;;;4973141;28;45598;-73
2022/03/10 12:01:43;;;;;;;;;7.00;7.00;;;;;;;;5086589;27;45436;-73
2022/03/10 12:04:14;;;;;;;;;7.75;7.25;;;;;;;;5095225;27;46471;-73
2022/03/10 12:06:46;;;;;;;;;8.50;6.00;;;;;;;;5094878;27;45326;-73
2022/03/10 12:09:24;;;;;;;;;8.00;8.00;;;;;;;;5095263;27;45295;-73
2022/03/10 12:11:51;;;;;;;;;10.50;9.25;;;;;;;;5094862;27;45436;-73
2022/03/10 12:14:24;;;;;;;;;8.50;7.00;;;;;;;;5094765;27;46646;-73
2022/03/10 12:16:49;;;;;;;;;5.50;5.50;;;;;;;;5094866;27;45362;-73
2022/03/10 12:19:14;;;;;;;;;9.25;6.50;;;;;;;;5094209;27;45378;-74
2022/03/10 12:21:40;;;;;;;;;7.00;7.00;;;;;;;;5095092;27;45409;-73
2022/03/10 12:24:05;;;;;;;;;7.25;7.25;;;;;;;;5095646;27;46874;-73
2022/03/10 12:26:31;;;;;;;;;6.50;5.50;;;;;;;;5094800;27;45359;-73
2022/03/10 12:28:58;;;;;;;;;9.00;8.00;;;;;;;;5094641;27;45387;-73
2022/03/10 12:31:27;;;;;;;;;9.00;7.00;;;;;;;;5095269;27;45420;-73
2022/03/10 12:33:53;;;;;;;;;8.00;7.25;;;;;;;;5094330;27;46204;-73
2022/03/10 12:36:25;;;;;;;;;8.50;8.25;;;;;;;;5094606;27;45604;-73
2022/03/10 12:38:50;;;;;;;;;6.25;6.25;;;;;;;;5096129;27;45556;-73
2022/03/10 12:41:17;;;;;;;;;7.00;6.75;;;;;;;;5094634;27;45401;-73
2022/03/10 12:43:43;;;;;;;;;6.75;6.75;;;;;;;;5094647;27;46982;-73
2022/03/10 12:46:09;;;;;;;;;10.75;7.00;;;;;;;;5094566;27;45357;-73
2022/03/10 12:48:43;;;;;;;;;5.75;5.75;;;;;;;;5094556;27;45559;-73
2022/03/10 12:51:22;;;;;;;;;6.00;6.00;;;;;;;;5092042;27;45429;-73
2022/03/10 12:53:47;;;;;;;;;9.25;7.75;;;;;;;;5092577;27;47212;-73
2022/03/10 12:56:12;;;;;;;;;6.50;5.50;;;;;;;;5098137;27;45437;-73
2022/03/10 12:58:37;;;;;;;;;7.00;7.00;;;;;;;;5097995;27;45464;-73
2022/03/10 13:01:03;;;;;;;;;8.75;8.75;;;;;;;;5098139;27;45517;-73
2022/03/10 13:03:33;;;;;;;;;8.00;7.00;;;;;;;;5097295;27;45472;-73
2022/03/10 13:06:00;;;;;;;;;7.25;7.25;;;;;;;;5099043;27;45447;-73
2022/03/10 13:08:25;;;;;;;;;8.00;7.75;;;;;;;;5097729;27;45390;-72
2022/03/10 13:10:58;;;;;;;;;5.75;5.75;;;;;;;;5091378;27;45232;-73
2022/03/10 13:13:29;;;;;;;;;5.25;5.25;;;;;;;;5088118;27;45449;-73
2022/03/10 13:15:58;;;;;;;;;4.75;4.75;;;;;;;;5097397;27;45447;-73
2022/03/10 13:18:23;;;;;;;;;8.25;5.25;;;;;;;;5097351;27;45551;-73
2022/03/10 13:20:48;;;;;;;;;7.00;7.00;;;;;;;;5098737;27;45442;-73
2022/03/10 13:23:13;;;;;;;;;6.00;5.00;;;;;;;;5097922;27;47772;-73
2022/03/10 13:25:40;;;;;;;;;6.00;5.00;;;;;;;;5094317;27;45636;-73
2022/03/10 13:28:07;;;;;;;;;6.00;6.00;;;;;;;;5098011;27;45293;-73
2022/03/10 13:30:32;;;;;;;;;5.00;5.00;;;;;;;;5097592;27;45361;-73
2022/03/10 13:32:59;;;;;;;;;7.50;6.50;;;;;;;;5098049;27;45356;-73
2022/03/10 13:35:29;;;;;;;;;6.75;6.25;;;;;;;;5097778;27;45341;-73
2022/03/10 13:37:55;;;;;;;;;6.00;6.00;;;;;;;;5097276;27;45326;-73
2022/03/10 13:40:20;;;;;;;;;8.00;6.50;;;;;;;;5097578;27;45467;-73
2022/03/10 13:42:49;;;;;;;;;6.25;6.25;;;;;;;;5097315;27;45504;-73
2022/03/10 13:45:14;;;;;;;;;6.25;6.25;;;;;;;;5097319;27;45746;-73
2022/03/10 13:47:58;;;;;;;;;10.00;7.00;;;;;;;;5097691;27;45275;-73
2022/03/10 13:50:27;;;;;;;;;8.75;6.75;;;;;;;;5086399;27;45452;-73
2022/03/10 13:53:11;;;;;;;;;6.50;6.50;;;;;;;;5092022;27;45533;-73
2022/03/10 13:55:36;;;;;;;;;7.00;6.50;;;;;;;;5097463;27;45573;-73
2022/03/10 13:58:03;;;;;;;;;6.00;6.00;;;;;;;;5097552;27;45440;-73
2022/03/10 14:00:30;;;;;;;;;6.00;6.00;;;;;;;;5097030;27;45614;-73
2022/03/10 14:02:55;;;;;;;;;5.00;5.00;;;;;;;;5097628;27;46264;-73
2022/03/10 14:05:20;;;;;;;;;8.00;6.50;;;;;;;;5096601;27;45236;-73
2022/03/10 14:07:53;;;;;;;;;6.00;6.00;;;;;;;;5096865;27;45656;-73
2022/03/10 14:10:27;;;;;;;;;6.25;6.25;;;;;;;;5096743;27;45457;-73
2022/03/10 14:12:53;;;;;;;;;6.00;5.25;;;;;;;;5096888;27;46505;-73
2022/03/10 14:15:32;;;;;;;;;5.25;5.25;;;;;;;;5096738;27;45393;-73
2022/03/10 14:17:58;;;;;;;;;5.00;5.00;;;;;;;;5097492;27;45350;-73
2022/03/10 14:20:38;;;;;;;;;6.75;6.00;;;;;;;;5096628;27;45485;-73
2022/03/10 14:23:07;;;;;;;;;5.00;5.00;;;;;;;;5096501;27;47124;-73
2022/03/10 14:25:39;;;;;;;;;6.00;5.50;;;;;;;;5096933;27;45451;-73
2022/03/10 14:28:08;;;;;;;;;4.75;4.75;;;;;;;;5097192;27;45330;-73
2022/03/10 14:30:34;;;;;;;;;7.00;5.25;;;;;;;;5096117;27;45521;-73
2022/03/10 14:33:00;;;;;;;;;7.50;5.75;;;;;;;;5097634;27;46213;-73
2022/03/10 14:35:25;;;;;;;;;4.75;4.25;;;;;;;;5096398;27;45437;-73